sensor_id;sensor_type;location;lat;lon;timestamp;pressure;altitude;pressure_sealevel;temperature;humidity
42411;BME280;28056;51.112;0.984;2023-05-03T00:00:20;101875.65;;;9.63;49.91
42411;BME280;28056;51.112;0.984;2023-05-03T00:04:51;101879.13;;;9.92;49.35
42411;BME280;28056;51.112;0.984;2023-05-03T00:07:19;101881.27;;;9.03;50.75
42411;BME280;28056;51.112;0.984;2023-05-03T00:09:46;101880.23;;;9.41;50.80
42411;BME280;28056;51.112;0.984;2023-05-03T00:12:13;101881.01;;;9.30;51.11
42411;BME280;28056;51.112;0.984;2023-05-03T00:14:41;101881.88;;;9.63;51.06
42411;BME280;28056;51.112;0.984;2023-05-03T00:17:08;101879.76;;;8.98;52.14
42411;BME280;28056;51.112;0.984;2023-05-03T00:19:35;101885.89;;;9.48;50.99
42411;BME280;28056;51.112;0.984;2023-05-03T00:22:02;101885.86;;;8.61;53.09
42411;BME280;28056;51.112;0.984;2023-05-03T00:24:29;101888.36;;;9.28;51.46
42411;BME280;28056;51.112;0.984;2023-05-03T00:26:56;101892.63;;;9.47;51.37
42411;BME280;28056;51.112;0.984;2023-05-03T00:29:23;101892.83;;;9.00;52.03
42411;BME280;28056;51.112;0.984;2023-05-03T00:31:50;101894.88;;;8.55;53.37
42411;BME280;28056;51.112;0.984;2023-05-03T00:34:17;101890.43;;;8.82;52.92
42411;BME280;28056;51.112;0.984;2023-05-03T00:36:45;101889.59;;;9.40;51.66
42411;BME280;28056;51.112;0.984;2023-05-03T00:39:12;101891.29;;;9.91;50.42
42411;BME280;28056;51.112;0.984;2023-05-03T00:41:40;101889.01;;;9.70;49.83
42411;BME280;28056;51.112;0.984;2023-05-03T00:44:07;101885.23;;;9.82;49.57
42411;BME280;28056;51.112;0.984;2023-05-03T00:46:34;101889.71;;;9.67;49.46
42411;BME280;28056;51.112;0.984;2023-05-03T00:49:02;101890.92;;;9.52;49.91
42411;BME280;28056;51.112;0.984;2023-05-03T00:51:30;101891.83;;;9.61;49.33
42411;BME280;28056;51.112;0.984;2023-05-03T00:53:58;101890.03;;;9.87;49.66
42411;BME280;28056;51.112;0.984;2023-05-03T00:56:26;101893.64;;;9.87;49.35
42411;BME280;28056;51.112;0.984;2023-05-03T00:58:54;101886.13;;;9.67;49.90
42411;BME280;28056;51.112;0.984;2023-05-03T01:01:22;101886.50;;;9.90;49.65
42411;BME280;28056;51.112;0.984;2023-05-03T01:03:50;101886.45;;;9.89;48.75
42411;BME280;28056;51.112;0.984;2023-05-03T01:06:28;101884.22;;;9.58;50.16
42411;BME280;28056;51.112;0.984;2023-05-03T01:09:02;101879.62;;;9.82;49.90
42411;BME280;28056;51.112;0.984;2023-05-03T01:11:40;101876.41;;;9.56;49.99
42411;BME280;28056;51.112;0.984;2023-05-03T01:14:19;101866.93;;;10.09;48.75
42411;BME280;28056;51.112;0.984;2023-05-03T01:16:51;101865.24;;;9.93;48.70
42411;BME280;28056;51.112;0.984;2023-05-03T01:19:28;101863.64;;;9.89;48.56
42411;BME280;28056;51.112;0.984;2023-05-03T01:22:08;101865.67;;;10.14;48.24
42411;BME280;28056;51.112;0.984;2023-05-03T01:24:37;101869.36;;;10.03;48.75
42411;BME280;28056;51.112;0.984;2023-05-03T01:27:06;101865.11;;;10.10;48.41
42411;BME280;28056;51.112;0.984;2023-05-03T01:29:34;101864.07;;;9.96;49.26
42411;BME280;28056;51.112;0.984;2023-05-03T01:32:06;101863.28;;;9.13;50.49
42411;BME280;28056;51.112;0.984;2023-05-03T01:34:41;101860.06;;;9.80;49.33
42411;BME280;28056;51.112;0.984;2023-05-03T01:37:13;101861.57;;;9.73;49.46
42411;BME280;28056;51.112;0.984;2023-05-03T01:39:45;101864.72;;;9.23;51.00
42411;BME280;28056;51.112;0.984;2023-05-03T01:42:15;101869.00;;;9.56;49.77
42411;BME280;28056;51.112;0.984;2023-05-03T01:44:43;101873.69;;;9.59;49.89
42411;BME280;28056;51.112;0.984;2023-05-03T01:47:12;101878.91;;;9.56;50.38
42411;BME280;28056;51.112;0.984;2023-05-03T01:49:39;101880.45;;;9.41;50.62
42411;BME280;28056;51.112;0.984;2023-05-03T01:52:06;101879.58;;;9.31;50.13
42411;BME280;28056;51.112;0.984;2023-05-03T01:54:33;101876.86;;;9.30;50.62
42411;BME280;28056;51.112;0.984;2023-05-03T01:57:00;101877.94;;;9.69;49.53
42411;BME280;28056;51.112;0.984;2023-05-03T01:59:28;101874.83;;;9.76;49.10
42411;BME280;28056;51.112;0.984;2023-05-03T02:01:55;101871.44;;;9.45;50.58
42411;BME280;28056;51.112;0.984;2023-05-03T02:04:23;101867.82;;;9.52;50.49
42411;BME280;28056;51.112;0.984;2023-05-03T02:06:50;101865.97;;;9.80;49.25
42411;BME280;28056;51.112;0.984;2023-05-03T02:09:17;101859.16;;;9.93;48.70
42411;BME280;28056;51.112;0.984;2023-05-03T02:11:44;101854.02;;;9.84;49.28
42411;BME280;28056;51.112;0.984;2023-05-03T02:14:11;101853.37;;;9.67;50.29
42411;BME280;28056;51.112;0.984;2023-05-03T02:16:38;101850.10;;;9.80;49.65
42411;BME280;28056;51.112;0.984;2023-05-03T02:19:05;101846.28;;;9.66;49.09
42411;BME280;28056;51.112;0.984;2023-05-03T02:21:33;101846.04;;;9.85;49.24
42411;BME280;28056;51.112;0.984;2023-05-03T02:24:01;101847.19;;;9.63;50.06
42411;BME280;28056;51.112;0.984;2023-05-03T02:26:29;101850.05;;;9.49;50.06
42411;BME280;28056;51.112;0.984;2023-05-03T02:28:56;101843.34;;;9.43;49.69
42411;BME280;28056;51.112;0.984;2023-05-03T02:31:23;101846.73;;;9.51;49.33
42411;BME280;28056;51.112;0.984;2023-05-03T02:33:51;101852.05;;;9.64;49.95
42411;BME280;28056;51.112;0.984;2023-05-03T02:36:18;101856.30;;;9.72;49.47
42411;BME280;28056;51.112;0.984;2023-05-03T02:38:45;101859.35;;;9.59;49.90
42411;BME280;28056;51.112;0.984;2023-05-03T02:41:13;101855.84;;;9.66;49.67
42411;BME280;28056;51.112;0.984;2023-05-03T02:43:40;101853.24;;;9.65;49.55
42411;BME280;28056;51.112;0.984;2023-05-03T02:46:07;101850.50;;;9.74;49.26
42411;BME280;28056;51.112;0.984;2023-05-03T02:48:34;101852.21;;;9.39;50.07
42411;BME280;28056;51.112;0.984;2023-05-03T02:51:02;101847.22;;;9.70;49.03
42411;BME280;28056;51.112;0.984;2023-05-03T02:53:29;101849.64;;;9.62;49.72
42411;BME280;28056;51.112;0.984;2023-05-03T02:55:56;101842.86;;;9.70;49.12
42411;BME280;28056;51.112;0.984;2023-05-03T02:58:23;101840.31;;;9.62;49.57
42411;BME280;28056;51.112;0.984;2023-05-03T03:00:51;101843.64;;;9.58;49.36
42411;BME280;28056;51.112;0.984;2023-05-03T03:03:18;101843.47;;;9.48;49.96
42411;BME280;28056;51.112;0.984;2023-05-03T03:05:46;101843.34;;;9.49;49.82
42411;BME280;28056;51.112;0.984;2023-05-03T03:08:13;101843.41;;;9.65;48.98
42411;BME280;28056;51.112;0.984;2023-05-03T03:10:40;101844.36;;;9.52;49.56
42411;BME280;28056;51.112;0.984;2023-05-03T03:13:09;101839.87;;;9.53;49.30
42411;BME280;28056;51.112;0.984;2023-05-03T03:15:36;101841.40;;;9.54;49.39
42411;BME280;28056;51.112;0.984;2023-05-03T03:18:03;101833.34;;;9.68;48.70
42411;BME280;28056;51.112;0.984;2023-05-03T03:20:31;101836.62;;;9.56;48.91
42411;BME280;28056;51.112;0.984;2023-05-03T03:22:58;101831.49;;;9.64;48.99
42411;BME280;28056;51.112;0.984;2023-05-03T03:25:25;101831.59;;;9.21;50.55
42411;BME280;28056;51.112;0.984;2023-05-03T03:27:52;101829.87;;;9.06;51.13
42411;BME280;28056;51.112;0.984;2023-05-03T03:30:19;101828.33;;;9.13;50.76
42411;BME280;28056;51.112;0.984;2023-05-03T03:32:46;101827.49;;;9.45;49.61
42411;BME280;28056;51.112;0.984;2023-05-03T03:35:13;101828.61;;;8.80;51.63
42411;BME280;28056;51.112;0.984;2023-05-03T03:37:41;101824.39;;;9.18;51.04
42411;BME280;28056;51.112;0.984;2023-05-03T03:40:09;101825.97;;;9.15;50.38
42411;BME280;28056;51.112;0.984;2023-05-03T03:42:38;101825.16;;;9.16;50.22
42411;BME280;28056;51.112;0.984;2023-05-03T03:45:07;101825.39;;;8.76;51.33
42411;BME280;28056;51.112;0.984;2023-05-03T03:47:34;101823.64;;;8.91;51.87
42411;BME280;28056;51.112;0.984;2023-05-03T03:50:01;101822.49;;;9.09;51.38
42411;BME280;28056;51.112;0.984;2023-05-03T03:52:29;101824.37;;;9.20;50.95
42411;BME280;28056;51.112;0.984;2023-05-03T03:54:56;101826.00;;;9.41;51.00
42411;BME280;28056;51.112;0.984;2023-05-03T03:57:23;101824.73;;;9.05;51.79
42411;BME280;28056;51.112;0.984;2023-05-03T03:59:51;101824.75;;;9.41;50.84
42411;BME280;28056;51.112;0.984;2023-05-03T04:02:18;101825.84;;;9.66;51.04
42411;BME280;28056;51.112;0.984;2023-05-03T04:04:46;101819.81;;;9.12;51.30
42411;BME280;28056;51.112;0.984;2023-05-03T04:07:13;101815.49;;;9.15;52.17
42411;BME280;28056;51.112;0.984;2023-05-03T04:09:40;101808.57;;;8.25;53.88
42411;BME280;28056;51.112;0.984;2023-05-03T04:12:07;101800.63;;;8.56;54.16
42411;BME280;28056;51.112;0.984;2023-05-03T04:14:34;101796.53;;;9.15;53.53
42411;BME280;28056;51.112;0.984;2023-05-03T04:17:01;101796.00;;;9.33;52.95
42411;BME280;28056;51.112;0.984;2023-05-03T04:19:29;101793.34;;;9.10;51.90
42411;BME280;28056;51.112;0.984;2023-05-03T04:21:56;101788.43;;;9.05;51.48
42411;BME280;28056;51.112;0.984;2023-05-03T04:24:23;101781.38;;;8.62;53.12
42411;BME280;28056;51.112;0.984;2023-05-03T04:26:50;101779.67;;;9.04;53.40
42411;BME280;28056;51.112;0.984;2023-05-03T04:29:17;101780.18;;;9.10;53.23
42411;BME280;28056;51.112;0.984;2023-05-03T04:31:45;101780.68;;;8.14;55.35
42411;BME280;28056;51.112;0.984;2023-05-03T04:34:13;101780.92;;;8.99;53.13
42411;BME280;28056;51.112;0.984;2023-05-03T04:36:41;101781.45;;;8.64;54.87
42411;BME280;28056;51.112;0.984;2023-05-03T04:39:08;101778.02;;;8.25;56.35
42411;BME280;28056;51.112;0.984;2023-05-03T04:41:35;101774.37;;;8.76;55.41
42411;BME280;28056;51.112;0.984;2023-05-03T04:44:04;101773.38;;;8.58;55.38
42411;BME280;28056;51.112;0.984;2023-05-03T04:46:31;101771.89;;;8.62;55.36
42411;BME280;28056;51.112;0.984;2023-05-03T04:48:59;101769.90;;;8.87;55.64
42411;BME280;28056;51.112;0.984;2023-05-03T04:51:26;101772.19;;;8.63;55.36
42411;BME280;28056;51.112;0.984;2023-05-03T04:53:53;101772.91;;;8.52;55.92
42411;BME280;28056;51.112;0.984;2023-05-03T04:56:21;101768.41;;;8.48;56.44
42411;BME280;28056;51.112;0.984;2023-05-03T04:58:48;101769.63;;;8.41;56.25
42411;BME280;28056;51.112;0.984;2023-05-03T05:01:15;101768.77;;;8.58;56.46
42411;BME280;28056;51.112;0.984;2023-05-03T05:03:42;101767.93;;;8.30;56.76
42411;BME280;28056;51.112;0.984;2023-05-03T05:06:10;101770.84;;;8.62;55.24
42411;BME280;28056;51.112;0.984;2023-05-03T05:08:37;101767.46;;;9.01;54.99
42411;BME280;28056;51.112;0.984;2023-05-03T05:11:05;101765.61;;;8.91;55.82
42411;BME280;28056;51.112;0.984;2023-05-03T05:13:33;101765.24;;;8.73;56.05
42411;BME280;28056;51.112;0.984;2023-05-03T05:16:00;101762.30;;;8.83;55.10
42411;BME280;28056;51.112;0.984;2023-05-03T05:18:27;101762.98;;;8.96;54.93
42411;BME280;28056;51.112;0.984;2023-05-03T05:20:54;101762.07;;;9.02;55.71
42411;BME280;28056;51.112;0.984;2023-05-03T05:23:21;101764.43;;;8.95;55.83
42411;BME280;28056;51.112;0.984;2023-05-03T05:25:49;101767.46;;;9.12;55.23
42411;BME280;28056;51.112;0.984;2023-05-03T05:28:16;101772.32;;;9.50;53.95
42411;BME280;28056;51.112;0.984;2023-05-03T05:30:43;101777.17;;;8.97;54.49
42411;BME280;28056;51.112;0.984;2023-05-03T05:33:11;101777.72;;;9.42;53.70
42411;BME280;28056;51.112;0.984;2023-05-03T05:35:38;101783.85;;;9.27;54.97
42411;BME280;28056;51.112;0.984;2023-05-03T05:38:05;101788.86;;;9.22;54.75
42411;BME280;28056;51.112;0.984;2023-05-03T05:40:32;101786.03;;;9.39;53.63
42411;BME280;28056;51.112;0.984;2023-05-03T05:42:59;101788.16;;;9.48;53.55
42411;BME280;28056;51.112;0.984;2023-05-03T05:45:27;101798.25;;;9.11;54.84
42411;BME280;28056;51.112;0.984;2023-05-03T05:47:55;101793.60;;;9.46;54.07
42411;BME280;28056;51.112;0.984;2023-05-03T05:50:23;101793.28;;;9.54;53.78
42411;BME280;28056;51.112;0.984;2023-05-03T05:52:51;101797.67;;;8.90;55.56
42411;BME280;28056;51.112;0.984;2023-05-03T05:55:19;101799.20;;;9.11;55.38
42411;BME280;28056;51.112;0.984;2023-05-03T05:57:46;101800.82;;;8.97;55.77
42411;BME280;28056;51.112;0.984;2023-05-03T06:00:14;101796.62;;;9.60;54.25
42411;BME280;28056;51.112;0.984;2023-05-03T06:02:42;101802.27;;;9.70;54.29
42411;BME280;28056;51.112;0.984;2023-05-03T06:05:10;101806.19;;;9.00;56.31
42411;BME280;28056;51.112;0.984;2023-05-03T06:07:37;101805.36;;;9.66;55.09
42411;BME280;28056;51.112;0.984;2023-05-03T06:10:06;101812.02;;;9.51;55.42
42411;BME280;28056;51.112;0.984;2023-05-03T06:12:34;101809.51;;;9.83;54.00
42411;BME280;28056;51.112;0.984;2023-05-03T06:15:02;101813.17;;;10.12;54.16
42411;BME280;28056;51.112;0.984;2023-05-03T06:17:31;101811.91;;;9.83;54.57
42411;BME280;28056;51.112;0.984;2023-05-03T06:19:58;101815.48;;;9.43;55.62
42411;BME280;28056;51.112;0.984;2023-05-03T06:22:26;101817.93;;;9.63;54.62
42411;BME280;28056;51.112;0.984;2023-05-03T06:24:54;101816.88;;;10.29;54.09
42411;BME280;28056;51.112;0.984;2023-05-03T06:27:22;101816.51;;;10.37;54.19
42411;BME280;28056;51.112;0.984;2023-05-03T06:29:49;101811.00;;;9.57;55.77
42411;BME280;28056;51.112;0.984;2023-05-03T06:32:18;101811.08;;;9.88;56.29
42411;BME280;28056;51.112;0.984;2023-05-03T06:34:45;101806.67;;;10.36;55.04
42411;BME280;28056;51.112;0.984;2023-05-03T06:37:12;101808.60;;;10.45;54.98
42411;BME280;28056;51.112;0.984;2023-05-03T06:39:40;101806.62;;;10.32;55.13
42411;BME280;28056;51.112;0.984;2023-05-03T06:42:07;101803.44;;;10.08;56.54
42411;BME280;28056;51.112;0.984;2023-05-03T06:44:35;101796.86;;;10.16;55.20
42411;BME280;28056;51.112;0.984;2023-05-03T06:47:02;101798.02;;;10.60;55.15
42411;BME280;28056;51.112;0.984;2023-05-03T06:49:29;101799.26;;;10.08;55.34
42411;BME280;28056;51.112;0.984;2023-05-03T06:51:57;101801.24;;;9.26;58.25
42411;BME280;28056;51.112;0.984;2023-05-03T06:54:24;101793.71;;;9.15;57.22
42411;BME280;28056;51.112;0.984;2023-05-03T06:56:52;101791.94;;;9.42;56.34
42411;BME280;28056;51.112;0.984;2023-05-03T06:59:20;101788.42;;;9.52;55.92
42411;BME280;28056;51.112;0.984;2023-05-03T07:01:47;101790.12;;;10.08;55.63
42411;BME280;28056;51.112;0.984;2023-05-03T07:04:14;101789.47;;;9.89;54.87
42411;BME280;28056;51.112;0.984;2023-05-03T07:06:42;101789.53;;;8.96;55.96
42411;BME280;28056;51.112;0.984;2023-05-03T07:09:09;101789.08;;;9.89;55.40
42411;BME280;28056;51.112;0.984;2023-05-03T07:11:37;101787.50;;;10.23;53.82
42411;BME280;28056;51.112;0.984;2023-05-03T07:14:05;101786.40;;;9.85;54.10
42411;BME280;28056;51.112;0.984;2023-05-03T07:16:32;101782.38;;;9.21;55.34
42411;BME280;28056;51.112;0.984;2023-05-03T07:19:00;101783.96;;;9.64;53.78
42411;BME280;28056;51.112;0.984;2023-05-03T07:21:27;101784.24;;;10.95;52.19
42411;BME280;28056;51.112;0.984;2023-05-03T07:23:54;101781.10;;;10.27;52.58
42411;BME280;28056;51.112;0.984;2023-05-03T07:26:21;101783.44;;;10.47;53.31
42411;BME280;28056;51.112;0.984;2023-05-03T07:28:49;101779.71;;;9.34;54.09
42411;BME280;28056;51.112;0.984;2023-05-03T07:31:17;101782.85;;;9.51;53.65
42411;BME280;28056;51.112;0.984;2023-05-03T07:33:44;101781.49;;;9.92;53.00
42411;BME280;28056;51.112;0.984;2023-05-03T07:36:11;101777.36;;;10.49;52.77
42411;BME280;28056;51.112;0.984;2023-05-03T07:38:39;101775.25;;;10.85;51.46
42411;BME280;28056;51.112;0.984;2023-05-03T07:41:07;101772.98;;;10.69;51.23
42411;BME280;28056;51.112;0.984;2023-05-03T07:43:34;101780.02;;;10.51;51.93
42411;BME280;28056;51.112;0.984;2023-05-03T07:46:02;101780.65;;;11.06;51.45
42411;BME280;28056;51.112;0.984;2023-05-03T07:48:30;101784.80;;;10.82;49.66
42411;BME280;28056;51.112;0.984;2023-05-03T07:50:58;101784.70;;;11.22;48.32
42411;BME280;28056;51.112;0.984;2023-05-03T07:53:25;101782.81;;;10.67;48.22
42411;BME280;28056;51.112;0.984;2023-05-03T07:55:53;101781.03;;;10.87;49.88
42411;BME280;28056;51.112;0.984;2023-05-03T07:58:20;101775.49;;;11.96;48.18
42411;BME280;28056;51.112;0.984;2023-05-03T08:00:53;101774.55;;;11.25;48.28
42411;BME280;28056;51.112;0.984;2023-05-03T08:03:20;101778.86;;;10.64;49.61
42411;BME280;28056;51.112;0.984;2023-05-03T08:05:47;101783.94;;;11.22;48.12
42411;BME280;28056;51.112;0.984;2023-05-03T08:08:15;101784.70;;;11.27;47.54
42411;BME280;28056;51.112;0.984;2023-05-03T08:10:43;101784.57;;;11.55;46.82
42411;BME280;28056;51.112;0.984;2023-05-03T08:13:10;101782.58;;;11.52;46.33
42411;BME280;28056;51.112;0.984;2023-05-03T08:15:37;101781.40;;;11.67;46.94
42411;BME280;28056;51.112;0.984;2023-05-03T08:18:05;101781.29;;;12.59;47.52
42411;BME280;28056;51.112;0.984;2023-05-03T08:20:33;101784.74;;;12.42;46.41
42411;BME280;28056;51.112;0.984;2023-05-03T08:23:00;101786.80;;;12.44;46.72
42411;BME280;28056;51.112;0.984;2023-05-03T08:25:28;101788.43;;;12.46;45.02
42411;BME280;28056;51.112;0.984;2023-05-03T08:27:55;101788.80;;;12.44;44.67
42411;BME280;28056;51.112;0.984;2023-05-03T08:30:23;101789.85;;;12.96;44.89
42411;BME280;28056;51.112;0.984;2023-05-03T08:32:50;101787.18;;;12.73;44.41
42411;BME280;28056;51.112;0.984;2023-05-03T08:35:18;101789.40;;;13.11;42.99
42411;BME280;28056;51.112;0.984;2023-05-03T08:37:45;101793.14;;;13.65;44.05
42411;BME280;28056;51.112;0.984;2023-05-03T08:40:13;101789.57;;;13.22;43.36
42411;BME280;28056;51.112;0.984;2023-05-03T08:42:42;101787.18;;;13.76;44.28
42411;BME280;28056;51.112;0.984;2023-05-03T08:45:11;101786.93;;;14.46;42.67
42411;BME280;28056;51.112;0.984;2023-05-03T08:47:39;101790.30;;;13.99;42.10
42411;BME280;28056;51.112;0.984;2023-05-03T08:50:08;101789.02;;;14.38;41.59
42411;BME280;28056;51.112;0.984;2023-05-03T08:52:36;101790.03;;;14.93;40.66
42411;BME280;28056;51.112;0.984;2023-05-03T08:55:05;101789.67;;;14.02;43.05
42411;BME280;28056;51.112;0.984;2023-05-03T08:57:33;101790.22;;;14.58;41.32
42411;BME280;28056;51.112;0.984;2023-05-03T09:00:01;101786.11;;;14.03;42.98
42411;BME280;28056;51.112;0.984;2023-05-03T09:02:30;101782.34;;;14.68;42.13
42411;BME280;28056;51.112;0.984;2023-05-03T09:04:57;101784.40;;;14.86;41.47
42411;BME280;28056;51.112;0.984;2023-05-03T09:07:25;101781.96;;;14.97;39.86
42411;BME280;28056;51.112;0.984;2023-05-03T09:09:52;101774.17;;;15.33;41.63
42411;BME280;28056;51.112;0.984;2023-05-03T09:12:34;101777.17;;;15.21;41.40
42411;BME280;28056;51.112;0.984;2023-05-03T09:15:03;101776.36;;;16.07;40.74
42411;BME280;28056;51.112;0.984;2023-05-03T09:17:31;101775.39;;;15.84;40.52
42411;BME280;28056;51.112;0.984;2023-05-03T09:19:59;101774.42;;;15.60;41.27
42411;BME280;28056;51.112;0.984;2023-05-03T09:22:30;101767.95;;;15.86;39.21
42411;BME280;28056;51.112;0.984;2023-05-03T09:24:59;101772.84;;;16.29;39.72
42411;BME280;28056;51.112;0.984;2023-05-03T09:27:27;101768.71;;;16.60;37.67
42411;BME280;28056;51.112;0.984;2023-05-03T09:30:05;101776.47;;;15.50;39.86
42411;BME280;28056;51.112;0.984;2023-05-03T09:32:47;101767.59;;;16.36;37.69
42411;BME280;28056;51.112;0.984;2023-05-03T09:35:15;101762.68;;;15.93;40.36
42411;BME280;28056;51.112;0.984;2023-05-03T09:37:43;101768.49;;;15.63;35.55
42411;BME280;28056;51.112;0.984;2023-05-03T09:40:11;101774.05;;;16.42;35.60
42411;BME280;28056;51.112;0.984;2023-05-03T09:42:39;101776.98;;;16.67;35.03
42411;BME280;28056;51.112;0.984;2023-05-03T09:45:08;101777.45;;;17.57;38.38
42411;BME280;28056;51.112;0.984;2023-05-03T09:47:48;101775.60;;;17.74;35.82
42411;BME280;28056;51.112;0.984;2023-05-03T09:50:15;101775.55;;;17.24;35.78
42411;BME280;28056;51.112;0.984;2023-05-03T09:52:43;101772.19;;;16.56;38.64
42411;BME280;28056;51.112;0.984;2023-05-03T09:55:11;101775.94;;;16.78;38.52
42411;BME280;28056;51.112;0.984;2023-05-03T09:57:39;101773.42;;;17.63;35.83
42411;BME280;28056;51.112;0.984;2023-05-03T10:00:09;101769.17;;;16.89;35.52
42411;BME280;28056;51.112;0.984;2023-05-03T10:02:37;101765.20;;;17.27;35.43
42411;BME280;28056;51.112;0.984;2023-05-03T10:05:06;101757.14;;;17.27;35.53
42411;BME280;28056;51.112;0.984;2023-05-03T10:07:38;101756.33;;;17.21;34.99
42411;BME280;28056;51.112;0.984;2023-05-03T10:10:07;101757.32;;;16.65;36.47
42411;BME280;28056;51.112;0.984;2023-05-03T10:12:35;101756.75;;;17.72;35.23
42411;BME280;28056;51.112;0.984;2023-05-03T10:15:06;101751.28;;;18.43;33.87
42411;BME280;28056;51.112;0.984;2023-05-03T10:17:37;101758.90;;;17.70;32.91
42411;BME280;28056;51.112;0.984;2023-05-03T10:20:11;101753.26;;;17.65;35.28
42411;BME280;28056;51.112;0.984;2023-05-03T10:23:06;101750.27;;;17.40;36.00
42411;BME280;28056;51.112;0.984;2023-05-03T10:25:35;101746.69;;;17.59;34.51
42411;BME280;28056;51.112;0.984;2023-05-03T10:28:04;101741.12;;;18.60;33.93
42411;BME280;28056;51.112;0.984;2023-05-03T10:30:34;101740.73;;;16.00;35.74
42411;BME280;28056;51.112;0.984;2023-05-03T10:33:34;101744.08;;;17.29;32.55
42411;BME280;28056;51.112;0.984;2023-05-03T10:36:05;101739.45;;;17.58;33.95
42411;BME280;28056;51.112;0.984;2023-05-03T10:38:33;101735.12;;;18.45;34.38
42411;BME280;28056;51.112;0.984;2023-05-03T10:41:00;101742.46;;;17.19;34.83
42411;BME280;28056;51.112;0.984;2023-05-03T10:43:44;101736.55;;;18.52;36.21
42411;BME280;28056;51.112;0.984;2023-05-03T10:46:44;101726.00;;;18.81;33.57
42411;BME280;28056;51.112;0.984;2023-05-03T10:49:16;101721.97;;;18.10;34.76
42411;BME280;28056;51.112;0.984;2023-05-03T10:51:44;101720.15;;;18.10;32.80
42411;BME280;28056;51.112;0.984;2023-05-03T10:54:12;101717.99;;;18.05;35.78
42411;BME280;28056;51.112;0.984;2023-05-03T10:56:52;101714.78;;;18.43;32.86
42411;BME280;28056;51.112;0.984;2023-05-03T10:59:23;101714.32;;;18.94;32.72
42411;BME280;28056;51.112;0.984;2023-05-03T11:01:52;101715.83;;;18.55;36.58
42411;BME280;28056;51.112;0.984;2023-05-03T11:04:34;101709.75;;;18.61;32.60
42411;BME280;28056;51.112;0.984;2023-05-03T11:07:02;101705.36;;;18.54;36.74
42411;BME280;28056;51.112;0.984;2023-05-03T11:09:31;101699.03;;;17.80;33.03
42411;BME280;28056;51.112;0.984;2023-05-03T11:12:03;101700.74;;;18.88;36.30
42411;BME280;28056;51.112;0.984;2023-05-03T11:14:31;101699.57;;;19.51;35.29
42411;BME280;28056;51.112;0.984;2023-05-03T11:16:59;101696.31;;;19.10;34.48
42411;BME280;28056;51.112;0.984;2023-05-03T11:19:27;101691.89;;;19.48;34.60
42411;BME280;28056;51.112;0.984;2023-05-03T11:21:56;101689.81;;;20.19;31.06
42411;BME280;28056;51.112;0.984;2023-05-03T11:24:23;101691.13;;;20.25;31.71
42411;BME280;28056;51.112;0.984;2023-05-03T11:26:51;101686.91;;;19.04;34.10
42411;BME280;28056;51.112;0.984;2023-05-03T11:29:18;101687.55;;;19.73;33.55
42411;BME280;28056;51.112;0.984;2023-05-03T11:31:45;101679.50;;;19.60;32.85
42411;BME280;28056;51.112;0.984;2023-05-03T11:34:13;101677.90;;;19.78;33.48
42411;BME280;28056;51.112;0.984;2023-05-03T11:36:41;101675.58;;;19.13;33.01
42411;BME280;28056;51.112;0.984;2023-05-03T11:39:11;101676.10;;;20.08;35.31
42411;BME280;28056;51.112;0.984;2023-05-03T11:41:39;101675.94;;;19.92;36.08
42411;BME280;28056;51.112;0.984;2023-05-03T11:44:06;101669.72;;;19.38;33.81
42411;BME280;28056;51.112;0.984;2023-05-03T11:46:36;101673.74;;;20.33;32.69
42411;BME280;28056;51.112;0.984;2023-05-03T11:49:04;101664.92;;;19.36;29.62
42411;BME280;28056;51.112;0.984;2023-05-03T11:51:32;101664.67;;;19.38;31.65
42411;BME280;28056;51.112;0.984;2023-05-03T11:54:01;101659.79;;;20.09;34.66
42411;BME280;28056;51.112;0.984;2023-05-03T11:56:29;101656.03;;;20.24;31.28
42411;BME280;28056;51.112;0.984;2023-05-03T11:58:57;101650.38;;;19.85;30.37
42411;BME280;28056;51.112;0.984;2023-05-03T12:01:26;101654.95;;;20.20;32.77
42411;BME280;28056;51.112;0.984;2023-05-03T12:03:55;101647.25;;;19.57;31.88
42411;BME280;28056;51.112;0.984;2023-05-03T12:06:24;101649.94;;;19.86;35.33
42411;BME280;28056;51.112;0.984;2023-05-03T12:08:52;101647.58;;;20.27;34.23
42411;BME280;28056;51.112;0.984;2023-05-03T12:11:20;101643.56;;;20.86;30.21
42411;BME280;28056;51.112;0.984;2023-05-03T12:13:56;101645.06;;;20.06;30.28
42411;BME280;28056;51.112;0.984;2023-05-03T12:16:25;101637.87;;;20.44;34.97
42411;BME280;28056;51.112;0.984;2023-05-03T12:18:54;101635.29;;;21.52;30.46
42411;BME280;28056;51.112;0.984;2023-05-03T12:21:23;101630.56;;;20.97;31.85
42411;BME280;28056;51.112;0.984;2023-05-03T12:23:51;101631.15;;;21.41;31.21
42411;BME280;28056;51.112;0.984;2023-05-03T12:26:19;101623.06;;;22.18;31.35
42411;BME280;28056;51.112;0.984;2023-05-03T12:28:48;101625.25;;;21.55;32.19
42411;BME280;28056;51.112;0.984;2023-05-03T12:31:21;101617.72;;;21.66;30.10
42411;BME280;28056;51.112;0.984;2023-05-03T12:33:48;101622.09;;;22.00;29.77
42411;BME280;28056;51.112;0.984;2023-05-03T12:36:15;101617.72;;;20.48;29.03
42411;BME280;28056;51.112;0.984;2023-05-03T12:38:48;101615.26;;;21.15;31.02
42411;BME280;28056;51.112;0.984;2023-05-03T12:41:15;101615.24;;;21.42;30.99
42411;BME280;28056;51.112;0.984;2023-05-03T12:43:42;101610.79;;;21.28;29.50
42411;BME280;28056;51.112;0.984;2023-05-03T12:46:09;101614.36;;;21.57;34.39
42411;BME280;28056;51.112;0.984;2023-05-03T12:48:37;101613.62;;;21.42;31.36
42411;BME280;28056;51.112;0.984;2023-05-03T12:51:04;101609.15;;;20.41;33.58
42411;BME280;28056;51.112;0.984;2023-05-03T12:53:32;101598.06;;;22.07;31.45
42411;BME280;28056;51.112;0.984;2023-05-03T12:55:59;101593.93;;;20.48;30.12
42411;BME280;28056;51.112;0.984;2023-05-03T12:58:27;101595.53;;;21.39;30.20
42411;BME280;28056;51.112;0.984;2023-05-03T13:00:54;101595.63;;;21.16;30.26
42411;BME280;28056;51.112;0.984;2023-05-03T13:03:21;101593.80;;;21.51;30.84